Time;durP1;ratioP1;P1;durP2;ratioP2;P2;SDS_P1;SDS_P2;PMS_P1;PMS_P2;Temp;Humidity;BMP_temperature;BMP_pressure;BME280_temperature;BME280_humidity;BME280_pressure;Samples;Min_cycle;Max_cycle;Signal;HPM_P1;HPM_P2
2022/03/09 00:01:40;;;;;;;1.30;1.30;;;;;;;;;;5098776;28;20701;-72
2022/03/09 00:04:27;;;;;;;1.30;1.30;;;;;;;;;;5097524;28;20659;-72
2022/03/09 00:07:14;;;;;;;1.03;1.03;;;;;;;;;;5097522;28;20255;-72
2022/03/09 00:10:03;;;;;;;1.43;1.33;;;;;;;;;;5097343;28;20283;-72
2022/03/09 00:12:50;;;;;;;1.13;1.13;;;;;;;;;;5099276;28;20276;-72
2022/03/09 00:15:37;;;;;;;1.20;1.20;;;;;;;;;;5096608;28;20314;-72
2022/03/09 00:18:24;;;;;;;1.30;1.30;;;;;;;;;;5100666;28;20218;-72
2022/03/09 00:21:11;;;;;;;1.60;1.60;;;;;;;;;;5100480;28;20796;-71
2022/03/09 00:23:58;;;;;;;1.10;1.10;;;;;;;;;;5099819;28;20313;-72
2022/03/09 00:26:46;;;;;;;1.80;1.70;;;;;;;;;;5095055;28;20225;-72
2022/03/09 00:29:35;;;;;;;1.27;1.10;;;;;;;;;;5097333;28;20203;-72
2022/03/09 00:32:21;;;;;;;1.13;1.13;;;;;;;;;;5101444;28;20244;-72
2022/03/09 00:35:10;;;;;;;1.30;1.30;;;;;;;;;;5100666;28;20263;-71
2022/03/09 00:37:57;;;;;;;1.57;1.47;;;;;;;;;;5097404;28;20206;-72
2022/03/09 00:40:44;;;;;;;1.47;1.40;;;;;;;;;;5096783;28;20348;-72
2022/03/09 00:43:32;;;;;;;1.13;1.13;;;;;;;;;;5108945;27;20655;-72
2022/03/09 00:46:19;;;;;;;1.30;1.30;;;;;;;;;;5117892;27;20300;-72
2022/03/09 00:49:06;;;;;;;1.20;1.20;;;;;;;;;;5119969;27;20354;-72
2022/03/09 00:51:53;;;;;;;1.40;1.40;;;;;;;;;;5117950;27;20224;-72
2022/03/09 00:54:40;;;;;;;1.77;1.67;;;;;;;;;;5121861;27;20289;-72
2022/03/09 00:57:27;;;;;;;1.43;1.30;;;;;;;;;;5120165;27;20258;-72
2022/03/09 01:00:16;;;;;;;1.50;1.40;;;;;;;;;;5113141;27;20689;-72
2022/03/09 01:03:03;;;;;;;1.40;1.30;;;;;;;;;;5117822;27;20289;-72
2022/03/09 01:05:50;;;;;;;1.23;1.23;;;;;;;;;;5117931;27;20286;-72
2022/03/09 01:08:37;;;;;;;1.30;1.30;;;;;;;;;;5116849;27;20263;-71
2022/03/09 01:11:24;;;;;;;1.30;1.20;;;;;;;;;;5118715;27;20246;-72
2022/03/09 01:14:11;;;;;;;1.40;1.40;;;;;;;;;;5112804;27;20284;-72
2022/03/09 01:17:00;;;;;;;1.60;1.60;;;;;;;;;;5120410;27;20559;-72
2022/03/09 01:19:47;;;;;;;1.30;1.30;;;;;;;;;;5117947;27;20297;-72
2022/03/09 01:22:33;;;;;;;1.30;1.30;;;;;;;;;;5117506;27;20233;-72
2022/03/09 01:25:20;;;;;;;1.70;1.60;;;;;;;;;;5120986;28;20757;-72
2022/03/09 01:28:07;;;;;;;1.70;1.60;;;;;;;;;;5120184;28;20224;-72
2022/03/09 01:30:54;;;;;;;1.30;1.30;;;;;;;;;;5117960;28;20281;-72
2022/03/09 01:33:43;;;;;;;1.40;1.40;;;;;;;;;;5115015;28;20210;-71
2022/03/09 01:36:29;;;;;;;1.30;1.30;;;;;;;;;;5116822;28;20201;-72
2022/03/09 01:39:16;;;;;;;1.80;1.77;;;;;;;;;;5118797;28;20297;-72
2022/03/09 01:42:04;;;;;;;1.70;1.60;;;;;;;;;;5116046;28;20681;-72
2022/03/09 01:44:51;;;;;;;1.77;1.73;;;;;;;;;;5122367;27;20214;-72
2022/03/09 01:47:38;;;;;;;1.43;1.43;;;;;;;;;;5123332;27;20247;-72
2022/03/09 01:50:27;;;;;;;1.30;1.30;;;;;;;;;;5124270;27;20293;-72
2022/03/09 01:53:14;;;;;;;1.50;1.50;;;;;;;;;;5121261;27;20251;-72
2022/03/09 01:56:01;;;;;;;1.60;1.50;;;;;;;;;;5121912;27;21138;-72
2022/03/09 01:58:48;;;;;;;1.53;1.43;;;;;;;;;;5120276;27;20315;-72
2022/03/09 02:01:35;;;;;;;1.50;1.50;;;;;;;;;;5122050;27;20545;-71
2022/03/09 02:04:22;;;;;;;1.50;1.30;;;;;;;;;;5122860;27;20232;-72
2022/03/09 02:07:12;;;;;;;1.77;1.67;;;;;;;;;;5123363;27;20310;-72
2022/03/09 02:09:58;;;;;;;1.73;1.63;;;;;;;;;;5123885;27;20691;-72
2022/03/09 02:12:45;;;;;;;1.50;1.50;;;;;;;;;;5121956;27;20202;-71
2022/03/09 02:15:32;;;;;;;1.43;1.40;;;;;;;;;;5120892;27;20202;-72
2022/03/09 02:18:18;;;;;;;1.70;1.60;;;;;;;;;;5121320;27;20329;-72
2022/03/09 02:21:11;;;;;;;1.50;1.50;;;;;;;;;;5118609;27;20232;-72
2022/03/09 02:23:59;;;;;;;1.60;1.60;;;;;;;;;;5120470;27;20246;-72
2022/03/09 02:26:46;;;;;;;1.20;1.20;;;;;;;;;;5120322;27;20309;-72
2022/03/09 02:29:33;;;;;;;1.57;1.50;;;;;;;;;;5122673;27;20202;-72
2022/03/09 02:32:20;;;;;;;1.30;1.30;;;;;;;;;;5124641;27;20327;-72
2022/03/09 02:35:08;;;;;;;1.50;1.50;;;;;;;;;;5118118;27;20696;-72
2022/03/09 02:37:55;;;;;;;1.47;1.40;;;;;;;;;;5123277;27;20300;-72
2022/03/09 02:40:44;;;;;;;1.20;1.20;;;;;;;;;;5125588;27;20209;-72
2022/03/09 02:43:31;;;;;;;1.40;1.40;;;;;;;;;;5120618;27;20260;-72
2022/03/09 02:46:17;;;;;;;1.30;1.30;;;;;;;;;;5109349;27;20822;-72
2022/03/09 02:49:04;;;;;;;1.50;1.27;;;;;;;;;;5124257;27;20259;-72
2022/03/09 02:51:52;;;;;;;1.57;1.47;;;;;;;;;;5124292;27;20744;-72
2022/03/09 02:54:39;;;;;;;1.27;1.27;;;;;;;;;;5121606;27;20289;-71
2022/03/09 02:57:28;;;;;;;1.13;1.13;;;;;;;;;;5122514;27;20686;-72
2022/03/09 03:00:15;;;;;;;1.37;1.37;;;;;;;;;;5118516;27;20224;-72
2022/03/09 03:03:02;;;;;;;1.43;1.40;;;;;;;;;;5117379;27;20576;-72
2022/03/09 03:05:49;;;;;;;1.50;1.40;;;;;;;;;;5115579;27;20605;-71
2022/03/09 03:08:38;;;;;;;1.30;1.30;;;;;;;;;;5119576;27;20646;-72
2022/03/09 03:11:25;;;;;;;1.50;1.50;;;;;;;;;;5123639;27;20216;-72
2022/03/09 03:14:13;;;;;;;1.60;1.50;;;;;;;;;;5121230;27;20251;-72
2022/03/09 03:17:00;;;;;;;1.63;1.53;;;;;;;;;;5119197;27;20605;-72
2022/03/09 03:19:47;;;;;;;1.43;1.43;;;;;;;;;;5118969;27;20677;-72
2022/03/09 03:22:34;;;;;;;1.40;1.40;;;;;;;;;;5121757;27;20661;-72
2022/03/09 03:25:21;;;;;;;1.60;1.60;;;;;;;;;;5121097;27;20258;-72
2022/03/09 03:28:08;;;;;;;1.53;1.43;;;;;;;;;;5119566;27;20299;-72
2022/03/09 03:30:56;;;;;;;1.50;1.50;;;;;;;;;;5123773;27;20814;-72
2022/03/09 03:33:43;;;;;;;1.40;1.40;;;;;;;;;;5119944;27;20205;-71
2022/03/09 03:36:30;;;;;;;1.67;1.67;;;;;;;;;;5123497;27;20704;-72
2022/03/09 03:39:17;;;;;;;1.63;1.63;;;;;;;;;;5122547;27;20216;-72
2022/03/09 03:42:04;;;;;;;1.67;1.57;;;;;;;;;;5123473;27;20208;-72
2022/03/09 03:44:51;;;;;;;1.77;1.73;;;;;;;;;;5121272;27;20244;-72
2022/03/09 03:47:39;;;;;;;1.57;1.57;;;;;;;;;;5121010;27;20257;-72
2022/03/09 03:50:27;;;;;;;1.30;1.30;;;;;;;;;;5120221;27;20302;-72
2022/03/09 03:53:14;;;;;;;1.53;1.53;;;;;;;;;;5122627;27;20701;-73
2022/03/09 03:56:01;;;;;;;1.33;1.33;;;;;;;;;;5119975;27;20716;-72
2022/03/09 03:58:48;;;;;;;1.57;1.50;;;;;;;;;;5122387;27;20213;-72
2022/03/09 04:01:35;;;;;;;1.53;1.50;;;;;;;;;;5118544;27;20347;-72
2022/03/09 04:04:23;;;;;;;1.50;1.50;;;;;;;;;;5118848;27;20608;-72
2022/03/09 04:07:10;;;;;;;1.57;1.57;;;;;;;;;;5122066;27;20225;-72
2022/03/09 04:09:57;;;;;;;1.90;1.80;;;;;;;;;;5121265;27;20208;-72
2022/03/09 04:12:44;;;;;;;1.60;1.60;;;;;;;;;;5118500;27;20296;-74
2022/03/09 04:15:31;;;;;;;2.00;1.90;;;;;;;;;;5118073;27;20274;-72
2022/03/09 04:18:18;;;;;;;1.63;1.60;;;;;;;;;;5122023;27;20571;-71
2022/03/09 04:21:07;;;;;;;1.73;1.67;;;;;;;;;;5118481;27;20749;-72
2022/03/09 04:23:55;;;;;;;2.20;2.10;;;;;;;;;;5122187;27;20211;-72
2022/03/09 04:26:42;;;;;;;1.80;1.70;;;;;;;;;;5118482;27;20225;-72
2022/03/09 04:29:28;;;;;;;2.20;2.10;;;;;;;;;;5122616;27;20300;-72
2022/03/09 04:32:15;;;;;;;1.73;1.70;;;;;;;;;;5119801;27;20682;-72
2022/03/09 04:35:02;;;;;;;1.80;1.70;;;;;;;;;;5120716;27;20338;-71
2022/03/09 04:37:51;;;;;;;1.90;1.80;;;;;;;;;;5120795;27;20285;-72
2022/03/09 04:40:38;;;;;;;1.90;1.80;;;;;;;;;;5118331;27;20300;-72
2022/03/09 04:43:25;;;;;;;1.53;1.53;;;;;;;;;;5118894;27;20317;-72
2022/03/09 04:46:12;;;;;;;1.93;1.83;;;;;;;;;;5121392;27;20213;-72
2022/03/09 04:48:59;;;;;;;2.00;1.90;;;;;;;;;;5119668;27;20344;-72
2022/03/09 04:51:46;;;;;;;2.17;2.00;;;;;;;;;;5115177;27;20264;-72
2022/03/09 04:54:35;;;;;;;1.97;1.87;;;;;;;;;;5119757;27;20628;-72
2022/03/09 04:57:22;;;;;;;2.20;2.10;;;;;;;;;;5116506;27;20262;-72
2022/03/09 05:00:10;;;;;;;1.77;1.67;;;;;;;;;;5122464;27;20208;-72
2022/03/09 05:02:57;;;;;;;2.00;1.90;;;;;;;;;;5118939;27;20342;-72
2022/03/09 05:05:44;;;;;;;2.27;2.17;;;;;;;;;;5113462;27;20271;-72
2022/03/09 05:08:30;;;;;;;2.10;2.00;;;;;;;;;;5120384;27;20285;-72
2022/03/09 05:11:19;;;;;;;1.90;1.80;;;;;;;;;;5117702;27;20241;-72
2022/03/09 05:14:06;;;;;;;1.83;1.80;;;;;;;;;;5118543;27;20237;-72
2022/03/09 05:16:53;;;;;;;1.70;1.70;;;;;;;;;;5118275;27;20196;-73
2022/03/09 05:19:40;;;;;;;2.00;1.90;;;;;;;;;;5118047;27;20547;-72
2022/03/09 05:22:27;;;;;;;2.10;2.00;;;;;;;;;;5118295;27;20273;-72
2022/03/09 05:25:14;;;;;;;2.03;1.93;;;;;;;;;;5115429;27;20653;-72
2022/03/09 05:28:03;;;;;;;2.27;2.17;;;;;;;;;;5118515;28;20717;-72
2022/03/09 05:30:50;;;;;;;2.30;2.20;;;;;;;;;;5117241;28;20293;-71
2022/03/09 05:33:36;;;;;;;2.20;2.10;;;;;;;;;;5117204;28;20234;-72
2022/03/09 05:36:23;;;;;;;2.10;2.00;;;;;;;;;;5119357;28;20270;-71
2022/03/09 05:39:10;;;;;;;2.10;2.00;;;;;;;;;;5120023;28;20213;-72
2022/03/09 05:41:57;;;;;;;2.10;2.00;;;;;;;;;;5118090;28;20291;-72
2022/03/09 05:44:46;;;;;;;2.10;2.00;;;;;;;;;;5120121;28;20242;-72
2022/03/09 05:47:33;;;;;;;2.30;2.20;;;;;;;;;;5120898;28;20321;-72
2022/03/09 05:50:20;;;;;;;2.10;2.00;;;;;;;;;;5116716;28;20288;-72
2022/03/09 05:53:07;;;;;;;2.20;2.10;;;;;;;;;;5117100;28;20229;-72
2022/03/09 05:55:54;;;;;;;2.13;2.03;;;;;;;;;;5117974;28;20688;-71
2022/03/09 05:58:41;;;;;;;2.10;2.00;;;;;;;;;;5117772;28;20334;-72
2022/03/09 06:01:29;;;;;;;1.90;1.80;;;;;;;;;;5117625;28;20310;-68
2022/03/09 06:04:16;;;;;;;2.10;2.00;;;;;;;;;;5115474;28;20206;-72
2022/03/09 06:07:04;;;;;;;2.20;2.10;;;;;;;;;;5119097;28;20271;-72
2022/03/09 06:09:50;;;;;;;2.40;2.30;;;;;;;;;;5120382;28;20609;-72
2022/03/09 06:12:37;;;;;;;2.40;2.30;;;;;;;;;;5115544;28;20293;-72
2022/03/09 06:15:24;;;;;;;2.03;1.93;;;;;;;;;;5117773;28;20349;-71
2022/03/09 06:18:13;;;;;;;2.30;2.20;;;;;;;;;;5116683;28;20284;-71
2022/03/09 06:20:59;;;;;;;2.30;2.10;;;;;;;;;;5117668;28;20220;-72
2022/03/09 06:23:46;;;;;;;2.00;1.90;;;;;;;;;;5118755;28;20206;-72
2022/03/09 06:26:34;;;;;;;1.90;1.80;;;;;;;;;;5119565;28;20674;-72
2022/03/09 06:29:20;;;;;;;2.27;2.17;;;;;;;;;;5121405;28;20266;-73
2022/03/09 06:32:09;;;;;;;2.03;1.93;;;;;;;;;;5122170;27;20210;-72
2022/03/09 06:34:57;;;;;;;2.07;1.97;;;;;;;;;;5122195;27;20211;-72
2022/03/09 06:37:44;;;;;;;2.00;1.90;;;;;;;;;;5118978;27;20210;-72
2022/03/09 06:40:31;;;;;;;2.27;2.17;;;;;;;;;;5118861;27;20283;-72
2022/03/09 06:43:18;;;;;;;2.13;2.03;;;;;;;;;;5116971;27;20267;-72
2022/03/09 06:46:05;;;;;;;2.00;1.90;;;;;;;;;;5120283;27;20197;-72
2022/03/09 06:48:52;;;;;;;2.20;2.10;;;;;;;;;;5123222;27;20226;-72
2022/03/09 06:51:40;;;;;;;2.27;2.17;;;;;;;;;;5123788;27;20688;-73
2022/03/09 06:54:28;;;;;;;2.00;1.90;;;;;;;;;;5125576;27;20205;-72
2022/03/09 06:57:15;;;;;;;2.40;2.30;;;;;;;;;;5124991;27;20688;-72
2022/03/09 07:00:02;;;;;;;2.40;2.30;;;;;;;;;;5124407;27;20194;-72
2022/03/09 07:02:49;;;;;;;2.47;2.37;;;;;;;;;;5122819;27;20696;-72
2022/03/09 07:05:36;;;;;;;2.17;2.07;;;;;;;;;;5119407;27;20579;-72
2022/03/09 07:08:25;;;;;;;2.10;2.00;;;;;;;;;;5121355;27;20578;-72
2022/03/09 07:11:11;;;;;;;2.00;1.90;;;;;;;;;;5120712;27;20273;-72
2022/03/09 07:13:58;;;;;;;2.10;2.00;;;;;;;;;;5120813;27;20212;-72
2022/03/09 07:16:45;;;;;;;2.07;1.97;;;;;;;;;;5112846;27;20306;-72
2022/03/09 07:19:32;;;;;;;2.07;1.97;;;;;;;;;;5123333;27;20673;-72
2022/03/09 07:22:19;;;;;;;2.10;2.00;;;;;;;;;;5122347;27;20237;-72
2022/03/09 07:25:10;;;;;;;1.73;1.70;;;;;;;;;;5120622;27;20254;-72
2022/03/09 07:27:57;;;;;;;1.73;1.63;;;;;;;;;;5120801;27;20218;-72
2022/03/09 07:30:43;;;;;;;1.97;1.83;;;;;;;;;;5121144;27;20229;-72
2022/03/09 07:33:30;;;;;;;2.00;1.90;;;;;;;;;;5119942;27;20206;-72
2022/03/09 07:36:17;;;;;;;2.00;1.90;;;;;;;;;;5123183;27;20221;-72
2022/03/09 07:39:04;;;;;;;1.73;1.63;;;;;;;;;;5122002;27;20205;-72
2022/03/09 07:41:53;;;;;;;1.90;1.80;;;;;;;;;;5121686;27;20282;-72
2022/03/09 07:44:40;;;;;;;1.60;1.60;;;;;;;;;;5120321;27;20231;-72
2022/03/09 07:47:27;;;;;;;1.90;1.80;;;;;;;;;;5121717;27;20304;-72
2022/03/09 07:50:14;;;;;;;1.60;1.50;;;;;;;;;;5122517;27;20231;-72
2022/03/09 07:53:01;;;;;;;1.47;1.47;;;;;;;;;;5121329;27;20286;-72
2022/03/09 07:55:48;;;;;;;1.93;1.83;;;;;;;;;;5119530;27;20215;-72
2022/03/09 07:58:36;;;;;;;1.47;1.40;;;;;;;;;;5118932;27;20210;-72
2022/03/09 08:01:23;;;;;;;1.77;1.67;;;;;;;;;;5119491;27;20218;-72
2022/03/09 08:04:10;;;;;;;1.63;1.63;;;;;;;;;;5119150;27;20779;-72
2022/03/09 08:06:57;;;;;;;1.73;1.70;;;;;;;;;;5120237;27;20243;-72
2022/03/09 08:09:44;;;;;;;1.73;1.63;;;;;;;;;;5118524;27;20295;-72
2022/03/09 08:12:31;;;;;;;1.73;1.63;;;;;;;;;;5121044;27;20302;-71
2022/03/09 08:15:19;;;;;;;1.50;1.50;;;;;;;;;;5116395;27;20207;-72
2022/03/09 08:18:06;;;;;;;1.60;1.50;;;;;;;;;;5118536;27;20234;-72
2022/03/09 08:20:53;;;;;;;1.70;1.60;;;;;;;;;;5120152;27;20297;-72
2022/03/09 08:23:40;;;;;;;1.60;1.50;;;;;;;;;;5122008;27;20231;-72
2022/03/09 08:26:27;;;;;;;1.93;1.83;;;;;;;;;;5116267;27;20259;-72
2022/03/09 08:29:14;;;;;;;1.70;1.60;;;;;;;;;;5117558;27;20223;-72
2022/03/09 08:32:03;;;;;;;1.40;1.40;;;;;;;;;;5119361;27;20256;-72
2022/03/09 08:34:50;;;;;;;1.50;1.50;;;;;;;;;;5120642;27;20300;-72
2022/03/09 08:37:37;;;;;;;1.40;1.40;;;;;;;;;;5119887;27;20677;-72
2022/03/09 08:40:24;;;;;;;1.90;1.77;;;;;;;;;;5119245;27;20539;-72
2022/03/09 08:43:12;;;;;;;1.30;1.30;;;;;;;;;;5120541;27;20242;-71
2022/03/09 08:46:00;;;;;;;1.70;1.70;;;;;;;;;;5118875;27;20208;-72
2022/03/09 08:48:48;;;;;;;1.40;1.37;;;;;;;;;;5117385;27;20223;-72
2022/03/09 08:51:37;;;;;;;1.90;1.80;;;;;;;;;;5120139;27;20297;-72
2022/03/09 08:54:24;;;;;;;1.43;1.37;;;;;;;;;;5119806;27;20255;-72
2022/03/09 08:57:11;;;;;;;1.40;1.30;;;;;;;;;;5115660;27;20232;-72
2022/03/09 09:00:01;;;;;;;1.27;1.27;;;;;;;;;;5118357;27;20699;-72
2022/03/09 09:02:48;;;;;;;1.30;1.30;;;;;;;;;;5118155;27;20212;-72
2022/03/09 09:05:36;;;;;;;1.30;1.20;;;;;;;;;;5119205;27;20248;-71
2022/03/09 09:08:23;;;;;;;1.50;1.40;;;;;;;;;;5116780;27;20769;-73
2022/03/09 09:11:10;;;;;;;1.50;1.40;;;;;;;;;;5118500;27;20211;-72
2022/03/09 09:13:57;;;;;;;1.20;1.20;;;;;;;;;;5115997;27;20211;-72
2022/03/09 09:16:44;;;;;;;1.20;1.20;;;;;;;;;;5116888;27;20216;-72
2022/03/09 09:19:33;;;;;;;1.30;1.30;;;;;;;;;;5120134;27;20213;-72
2022/03/09 09:22:21;;;;;;;1.00;1.00;;;;;;;;;;5117440;27;20207;-72
2022/03/09 09:25:09;;;;;;;1.70;1.40;;;;;;;;;;5118627;27;20214;-72
2022/03/09 09:27:58;;;;;;;1.20;1.20;;;;;;;;;;5117695;28;20260;-72
2022/03/09 09:30:44;;;;;;;1.17;1.17;;;;;;;;;;5120493;28;20227;-72
2022/03/09 09:33:31;;;;;;;1.47;1.30;;;;;;;;;;5118246;28;20222;-72
2022/03/09 09:36:18;;;;;;;1.30;1.30;;;;;;;;;;5121770;28;20680;-72
2022/03/09 09:39:07;;;;;;;1.00;1.00;;;;;;;;;;5116327;28;20289;-72
2022/03/09 09:41:54;;;;;;;2.43;1.57;;;;;;;;;;5113331;28;20252;-72
2022/03/09 09:44:42;;;;;;;1.40;1.30;;;;;;;;;;5117703;28;20647;-72
2022/03/09 09:47:29;;;;;;;1.20;1.20;;;;;;;;;;5124168;28;20203;-72
2022/03/09 09:50:17;;;;;;;1.80;1.20;;;;;;;;;;5117183;28;20202;-72
2022/03/09 09:53:05;;;;;;;2.73;1.30;;;;;;;;;;5119109;28;20239;-72
2022/03/09 09:55:53;;;;;;;1.30;1.30;;;;;;;;;;5121004;28;20206;-71
2022/03/09 09:58:41;;;;;;;1.13;1.13;;;;;;;;;;5120406;28;20238;-72
2022/03/09 10:01:29;;;;;;;1.17;1.17;;;;;;;;;;5117929;28;20573;-72
2022/03/09 10:04:16;;;;;;;1.10;1.10;;;;;;;;;;5117912;28;20201;-72
2022/03/09 10:07:04;;;;;;;1.17;1.17;;;;;;;;;;5118342;27;20694;-72
2022/03/09 10:09:51;;;;;;;1.20;1.20;;;;;;;;;;5121388;27;20448;-72
2022/03/09 10:12:39;;;;;;;1.10;1.10;;;;;;;;;;5119526;27;20265;-71
2022/03/09 10:15:26;;;;;;;1.20;1.20;;;;;;;;;;5121157;27;20772;-72
2022/03/09 10:18:15;;;;;;;1.00;1.00;;;;;;;;;;5121684;27;20258;-72
2022/03/09 10:21:09;;;;;;;1.30;1.20;;;;;;;;;;5119451;27;20261;-72
2022/03/09 10:23:59;;;;;;;1.03;1.03;;;;;;;;;;5121622;27;20237;-72
2022/03/09 10:26:47;;;;;;;1.40;1.00;;;;;;;;;;5123800;27;20206;-71
2022/03/09 10:29:36;;;;;;;0.90;0.90;;;;;;;;;;5122383;27;20226;-72
2022/03/09 10:32:24;;;;;;;1.20;1.20;;;;;;;;;;5123363;27;20586;-72
2022/03/09 10:35:12;;;;;;;1.10;1.10;;;;;;;;;;5119162;27;20206;-72
2022/03/09 10:38:00;;;;;;;0.80;0.80;;;;;;;;;;5121416;27;20285;-72
2022/03/09 10:40:49;;;;;;;1.23;1.13;;;;;;;;;;5121843;27;20312;-71
2022/03/09 10:43:36;;;;;;;0.90;0.90;;;;;;;;;;5124789;27;20355;-72
2022/03/09 10:46:24;;;;;;;1.10;1.10;;;;;;;;;;5122269;27;20199;-71
2022/03/09 10:49:12;;;;;;;0.97;0.97;;;;;;;;;;5120333;27;20678;-72
2022/03/09 10:51:59;;;;;;;1.00;1.00;;;;;;;;;;5120270;27;20253;-72
2022/03/09 10:54:46;;;;;;;1.07;1.07;;;;;;;;;;5119494;27;20348;-71
2022/03/09 10:57:33;;;;;;;1.30;1.20;;;;;;;;;;5121199;27;20245;-72
2022/03/09 11:00:37;;;;;;;1.07;1.07;;;;;;;;;;5121920;27;20670;-72
2022/03/09 11:03:27;;;;;;;1.00;1.00;;;;;;;;;;5118357;27;20708;-71
2022/03/09 11:06:15;;;;;;;0.90;0.90;;;;;;;;;;5118623;27;20214;-72
2022/03/09 11:09:02;;;;;;;0.70;0.70;;;;;;;;;;5121873;27;20218;-72
2022/03/09 11:11:50;;;;;;;1.10;1.10;;;;;;;;;;5122343;27;20284;-72
2022/03/09 11:14:39;;;;;;;0.90;0.90;;;;;;;;;;5120198;27;20210;-72
2022/03/09 11:17:26;;;;;;;0.90;0.90;;;;;;;;;;5119092;27;20217;-72
2022/03/09 11:20:16;;;;;;;0.90;0.90;;;;;;;;;;5123061;27;20255;-72
2022/03/09 11:23:03;;;;;;;1.00;1.00;;;;;;;;;;5114019;27;20219;-72
2022/03/09 11:25:53;;;;;;;0.80;0.80;;;;;;;;;;5121917;27;20280;-72
2022/03/09 11:28:42;;;;;;;1.27;0.93;;;;;;;;;;5120061;27;20224;-71
2022/03/09 11:31:50;;;;;;;1.00;1.00;;;;;;;;;;5122007;27;20246;-71
2022/03/09 11:34:39;;;;;;;0.90;0.90;;;;;;;;;;5119981;27;20209;-72
2022/03/09 11:37:37;;;;;;;0.87;0.87;;;;;;;;;;5122822;27;20689;-71
2022/03/09 11:40:24;;;;;;;1.00;1.00;;;;;;;;;;5122129;27;20209;-71
2022/03/09 11:43:30;;;;;;;0.60;0.60;;;;;;;;;;5117673;27;20230;-71
2022/03/09 11:46:17;;;;;;;1.00;1.00;;;;;;;;;;5119648;27;20244;-71
2022/03/09 11:49:04;;;;;;;1.00;1.00;;;;;;;;;;5121394;27;20220;-71
2022/03/09 11:52:06;;;;;;;0.93;0.93;;;;;;;;;;5120769;27;20237;-72
2022/03/09 11:54:59;;;;;;;1.10;1.10;;;;;;;;;;5118940;27;20614;-72
2022/03/09 11:58:10;;;;;;;0.90;0.90;;;;;;;;;;5116652;27;20210;-71
2022/03/09 12:01:01;;;;;;;0.90;0.90;;;;;;;;;;5117840;27;20204;-72
2022/03/09 12:03:48;;;;;;;0.80;0.80;;;;;;;;;;5119288;27;20226;-72
2022/03/09 12:06:42;;;;;;;0.80;0.80;;;;;;;;;;5118770;27;20213;-72
2022/03/09 12:09:58;;;;;;;0.70;0.70;;;;;;;;;;5120977;27;20291;-72
2022/03/09 12:13:17;;;;;;;0.87;0.87;;;;;;;;;;5118632;27;20654;-71
2022/03/09 12:16:15;;;;;;;0.70;0.63;;;;;;;;;;5117852;27;20213;-71
2022/03/09 12:19:11;;;;;;;0.93;0.93;;;;;;;;;;5123104;27;20221;-71
2022/03/09 12:22:06;;;;;;;0.80;0.80;;;;;;;;;;5120767;27;20202;-71
2022/03/09 12:25:31;;;;;;;0.83;0.83;;;;;;;;;;5122552;27;20233;-72
2022/03/09 12:28:47;;;;;;;0.90;0.90;;;;;;;;;;5117278;27;20244;-71
2022/03/09 12:31:34;;;;;;;0.80;0.80;;;;;;;;;;5117285;27;20209;-72
2022/03/09 12:34:25;;;;;;;1.00;1.00;;;;;;;;;;5117356;27;20350;-71
2022/03/09 12:37:14;;;;;;;0.70;0.70;;;;;;;;;;5117185;27;20562;-71
2022/03/09 12:40:03;;;;;;;0.90;0.90;;;;;;;;;;5123721;27;20250;-72
2022/03/09 12:42:59;;;;;;;1.53;1.00;;;;;;;;;;5116567;27;20202;-72
2022/03/09 12:45:52;;;;;;;1.23;0.80;;;;;;;;;;5118072;27;20239;-72
2022/03/09 12:48:40;;;;;;;0.80;0.80;;;;;;;;;;5119602;27;20750;-71
2022/03/09 12:51:27;;;;;;;0.93;0.90;;;;;;;;;;5121541;27;20210;-71
2022/03/09 12:54:14;;;;;;;1.10;1.10;;;;;;;;;;5117302;27;20237;-72
2022/03/09 12:57:07;;;;;;;1.07;0.90;;;;;;;;;;5118292;27;20209;-71
2022/03/09 12:59:56;;;;;;;1.27;0.93;;;;;;;;;;5119723;27;20334;-72
2022/03/09 13:02:46;;;;;;;0.93;0.93;;;;;;;;;;5120983;27;20211;-71
2022/03/09 13:05:33;;;;;;;0.80;0.80;;;;;;;;;;5121825;27;20575;-72
2022/03/09 13:08:21;;;;;;;0.83;0.83;;;;;;;;;;5115957;27;20216;-72
2022/03/09 13:11:07;;;;;;;0.90;0.90;;;;;;;;;;5122192;27;20212;-72
2022/03/09 13:13:55;;;;;;;0.97;0.80;;;;;;;;;;5115952;27;20241;-72
2022/03/09 13:16:42;;;;;;;1.70;0.70;;;;;;;;;;5118592;27;20201;-72
2022/03/09 13:19:32;;;;;;;0.80;0.80;;;;;;;;;;5117889;27;20222;-71
2022/03/09 13:22:19;;;;;;;0.60;0.60;;;;;;;;;;5119594;27;20555;-71
2022/03/09 13:25:07;;;;;;;1.03;0.83;;;;;;;;;;5122083;27;20212;-71
2022/03/09 13:28:01;;;;;;;1.73;0.90;;;;;;;;;;5118815;28;20203;-72
2022/03/09 13:30:52;;;;;;;0.97;0.97;;;;;;;;;;5119488;28;20220;-71
2022/03/09 13:33:39;;;;;;;1.60;1.50;;;;;;;;;;5118861;28;20297;-72
2022/03/09 13:36:27;;;;;;;1.73;1.27;;;;;;;;;;5116920;28;20285;-72
2022/03/09 13:39:14;;;;;;;1.40;1.30;;;;;;;;;;5119381;28;20200;-72
2022/03/09 13:42:01;;;;;;;1.33;0.90;;;;;;;;;;5124704;27;20215;-71
2022/03/09 13:45:01;;;;;;;1.20;1.20;;;;;;;;;;5123394;27;20240;-72
2022/03/09 13:47:52;;;;;;;1.27;1.27;;;;;;;;;;5121794;27;20223;-72
2022/03/09 13:50:47;;;;;;;1.20;1.20;;;;;;;;;;5124823;27;20232;-72
2022/03/09 13:53:38;;;;;;;1.10;1.10;;;;;;;;;;5126661;27;20714;-72
2022/03/09 13:56:25;;;;;;;1.47;1.37;;;;;;;;;;5122462;27;20297;-71
2022/03/09 13:59:12;;;;;;;1.00;1.00;;;;;;;;;;5125896;27;20568;-72
2022/03/09 14:01:59;;;;;;;1.00;1.00;;;;;;;;;;5124924;27;20720;-72
2022/03/09 14:04:46;;;;;;;2.00;1.20;;;;;;;;;;5126651;27;20599;-72
2022/03/09 14:07:38;;;;;;;1.10;1.10;;;;;;;;;;5121044;27;20242;-72
2022/03/09 14:10:28;;;;;;;1.57;1.47;;;;;;;;;;5124105;27;20694;-72
2022/03/09 14:13:16;;;;;;;0.97;0.97;;;;;;;;;;5121677;27;20208;-71
2022/03/09 14:16:04;;;;;;;1.30;1.20;;;;;;;;;;5119545;27;20229;-72
2022/03/09 14:18:51;;;;;;;1.10;1.00;;;;;;;;;;5123673;27;20321;-72
2022/03/09 14:21:39;;;;;;;1.73;1.10;;;;;;;;;;5122676;27;20206;-72
2022/03/09 14:24:27;;;;;;;0.93;0.93;;;;;;;;;;5124533;27;20223;-72
2022/03/09 14:27:15;;;;;;;1.20;1.20;;;;;;;;;;5118144;27;20229;-71
2022/03/09 14:30:04;;;;;;;0.63;0.63;;;;;;;;;;5122477;27;20222;-72
2022/03/09 14:32:51;;;;;;;1.00;0.97;;;;;;;;;;5120011;27;20338;-72
2022/03/09 14:35:38;;;;;;;1.00;0.90;;;;;;;;;;5125343;27;20560;-72
2022/03/09 14:38:25;;;;;;;1.00;1.00;;;;;;;;;;5121340;27;20210;-72
2022/03/09 14:41:14;;;;;;;0.80;0.80;;;;;;;;;;5124498;27;20791;-72
2022/03/09 14:44:02;;;;;;;2.00;0.93;;;;;;;;;;5120954;27;20233;-72
2022/03/09 14:46:49;;;;;;;0.90;0.90;;;;;;;;;;5118007;27;20238;-71
2022/03/09 14:49:36;;;;;;;1.10;0.90;;;;;;;;;;5123970;27;20693;-72
2022/03/09 14:52:23;;;;;;;1.07;0.90;;;;;;;;;;5121761;27;20233;-72
2022/03/09 14:55:11;;;;;;;0.90;0.90;;;;;;;;;;5120754;27;20658;-72
2022/03/09 14:57:58;;;;;;;0.97;0.93;;;;;;;;;;5120732;27;20210;-72
2022/03/09 15:00:48;;;;;;;3.13;1.00;;;;;;;;;;5117803;27;20255;-72
2022/03/09 15:03:35;;;;;;;2.30;1.10;;;;;;;;;;5118585;27;20288;-72
2022/03/09 15:06:22;;;;;;;1.30;1.20;;;;;;;;;;5118655;27;20198;-72
2022/03/09 15:09:09;;;;;;;1.30;1.00;;;;;;;;;;5123762;27;20294;-72
2022/03/09 15:11:56;;;;;;;2.63;1.07;;;;;;;;;;5120050;27;20292;-72
2022/03/09 15:14:43;;;;;;;1.20;1.10;;;;;;;;;;5118503;27;20238;-71
2022/03/09 15:17:32;;;;;;;0.90;0.90;;;;;;;;;;5121135;27;20300;-72
2022/03/09 15:20:19;;;;;;;1.57;1.27;;;;;;;;;;5121347;27;20203;-72
2022/03/09 15:23:06;;;;;;;1.30;0.90;;;;;;;;;;5119253;27;20208;-72
2022/03/09 15:25:53;;;;;;;1.30;1.30;;;;;;;;;;5119068;27;20288;-71
2022/03/09 15:28:40;;;;;;;0.80;0.80;;;;;;;;;;5122208;27;20256;-72
2022/03/09 15:31:27;;;;;;;2.50;1.10;;;;;;;;;;5121005;27;20563;-73
2022/03/09 15:34:15;;;;;;;0.83;0.83;;;;;;;;;;5124387;27;20207;-71
2022/03/09 15:37:02;;;;;;;0.97;0.87;;;;;;;;;;5120130;27;20309;-72
2022/03/09 15:39:54;;;;;;;1.00;1.00;;;;;;;;;;5122778;27;20289;-72
2022/03/09 15:42:41;;;;;;;1.90;0.97;;;;;;;;;;5114256;27;20290;-72
2022/03/09 15:45:28;;;;;;;0.97;0.90;;;;;;;;;;5122226;27;20253;-71
2022/03/09 15:48:15;;;;;;;1.13;1.03;;;;;;;;;;5120558;27;20293;-72
2022/03/09 15:51:04;;;;;;;1.60;0.90;;;;;;;;;;5121046;27;20227;-72
2022/03/09 15:53:51;;;;;;;0.97;0.97;;;;;;;;;;5121500;27;20224;-72
2022/03/09 15:56:38;;;;;;;1.57;1.00;;;;;;;;;;5122007;27;20269;-72
2022/03/09 15:59:25;;;;;;;1.30;1.10;;;;;;;;;;5115022;27;20239;-72
2022/03/09 16:02:12;;;;;;;1.00;0.97;;;;;;;;;;5121098;27;20206;-72
2022/03/09 16:04:59;;;;;;;2.40;1.00;;;;;;;;;;5121238;27;20290;-72
2022/03/09 16:07:48;;;;;;;1.07;1.07;;;;;;;;;;5115210;27;20236;-72
2022/03/09 16:10:35;;;;;;;0.80;0.80;;;;;;;;;;5121062;27;20623;-72
2022/03/09 16:13:22;;;;;;;0.70;0.70;;;;;;;;;;5120332;27;20289;-72
2022/03/09 16:16:09;;;;;;;0.77;0.77;;;;;;;;;;5117661;27;20211;-72
2022/03/09 16:18:55;;;;;;;1.20;0.90;;;;;;;;;;5118643;27;20294;-73
2022/03/09 16:21:44;;;;;;;1.07;0.77;;;;;;;;;;5119675;27;20664;-72
2022/03/09 16:24:32;;;;;;;2.53;0.90;;;;;;;;;;5119264;27;20208;-72
2022/03/09 16:27:20;;;;;;;0.67;0.67;;;;;;;;;;5119535;27;20675;-72
2022/03/09 16:30:08;;;;;;;1.60;1.13;;;;;;;;;;5120428;27;20285;-72
2022/03/09 16:32:55;;;;;;;0.90;0.90;;;;;;;;;;5119877;27;20210;-72
2022/03/09 16:35:43;;;;;;;0.97;0.90;;;;;;;;;;5119180;27;20279;-71
2022/03/09 16:38:29;;;;;;;0.80;0.70;;;;;;;;;;5120322;27;20334;-72
2022/03/09 16:41:21;;;;;;;0.70;0.70;;;;;;;;;;5120229;27;20231;-72
2022/03/09 16:44:08;;;;;;;0.90;0.87;;;;;;;;;;5119902;27;20244;-72
2022/03/09 16:46:55;;;;;;;0.70;0.70;;;;;;;;;;5118946;27;20237;-72
2022/03/09 16:49:42;;;;;;;0.90;0.90;;;;;;;;;;5121713;27;20734;-73